Time;durP1;ratioP1;P1;durP2;ratioP2;P2;SDS_P1;SDS_P2;PMS_P1;PMS_P2;Temp;Humidity;BMP_temperature;BMP_pressure;BME280_temperature;BME280_humidity;BME280_pressure;Samples;Min_cycle;Max_cycle;Signal;HPM_P1;HPM_P2
2021/06/04 00:00:38;;;;;;;8.97;5.37;;;18.60;89.30;;;;;;5033303;28;20422;-73
2021/06/04 00:03:08;;;;;;;8.53;5.40;;;18.70;89.50;;;;;;5034125;28;20876;-72
2021/06/04 00:05:41;;;;;;;8.00;4.80;;;18.50;89.70;;;;;;5034465;28;20845;-74
2021/06/04 00:08:07;;;;;;;7.40;5.13;;;18.50;90.00;;;;;;5037853;28;20420;-73
2021/06/04 00:10:40;;;;;;;6.67;5.00;;;18.40;90.10;;;;;;5033925;28;20957;-74
2021/06/04 00:13:24;;;;;;;8.37;5.07;;;18.50;90.10;;;;;;5033974;28;20465;-74
2021/06/04 00:15:55;;;;;;;9.37;5.03;;;18.50;89.70;;;;;;5033753;28;20516;-73
2021/06/04 00:18:20;;;;;;;7.17;4.63;;;18.40;90.00;;;;;;5033673;28;20942;-73
2021/06/04 00:20:47;;;;;;;7.50;4.30;;;18.40;90.00;;;;;;5035244;28;20432;-74
2021/06/04 00:23:12;;;;;;;9.57;4.50;;;18.40;90.10;;;;;;5043645;28;20281;-73
2021/06/04 00:25:38;;;;;;;8.20;4.20;;;18.40;89.90;;;;;;5039757;28;20460;-75
2021/06/04 00:28:05;;;;;;;5.93;4.40;;;18.40;89.50;;;;;;5034069;28;20184;-75
2021/06/04 00:30:31;;;;;;;11.20;5.27;;;18.30;89.60;;;;;;5032276;28;20676;-75
2021/06/04 00:32:57;;;;;;;5.70;3.97;;;18.40;90.00;;;;;;5033441;28;20451;-77
2021/06/04 00:35:24;;;;;;;5.93;4.33;;;18.30;90.20;;;;;;5033999;28;20186;-77
2021/06/04 00:37:51;;;;;;;11.00;4.17;;;18.30;90.40;;;;;;5033472;28;20417;-76
2021/06/04 00:40:27;;;;;;;7.57;4.50;;;18.30;90.50;;;;;;5026473;28;20979;-75
2021/06/04 00:42:54;;;;;;;7.90;4.73;;;18.30;90.50;;;;;;5032456;28;20443;-75
2021/06/04 00:45:25;;;;;;;7.17;4.50;;;18.30;90.70;;;;;;5033008;28;20447;-76
2021/06/04 00:47:51;;;;;;;6.83;4.60;;;18.30;90.60;;;;;;5032734;28;20565;-76
2021/06/04 00:50:33;;;;;;;8.73;5.43;;;18.40;90.30;;;;;;5032990;28;20549;-76
2021/06/04 00:53:00;;;;;;;12.60;5.93;;;18.30;90.70;;;;;;5036291;28;20204;-74
2021/06/04 00:55:26;;;;;;;9.83;5.70;;;18.10;91.20;;;;;;5037160;28;20413;-74
2021/06/04 00:57:53;;;;;;;8.70;6.17;;;18.00;91.60;;;;;;5039130;28;20434;-76
2021/06/04 01:00:28;;;;;;;7.27;5.20;;;17.90;92.10;;;;;;5033669;28;20428;-75
2021/06/04 01:02:55;;;;;;;9.83;5.90;;;17.80;92.10;;;;;;5031510;28;20468;-76
2021/06/04 01:05:25;;;;;;;8.10;5.53;;;17.80;92.20;;;;;;5031029;28;20456;-76
2021/06/04 01:07:57;;;;;;;7.23;5.47;;;17.80;92.20;;;;;;5032330;28;20459;-75
2021/06/04 01:10:43;;;;;;;6.60;4.83;;;17.90;92.10;;;;;;5032976;28;20456;-75
2021/06/04 01:13:34;;;;;;;6.70;5.03;;;17.90;91.80;;;;;;5032401;28;20511;-75
2021/06/04 01:16:21;;;;;;;7.20;4.80;;;17.90;91.90;;;;;;5031308;28;21048;-76
2021/06/04 01:18:52;;;;;;;9.07;5.00;;;17.90;91.90;;;;;;5031935;28;20910;-75
2021/06/04 01:21:36;;;;;;;7.30;4.80;;;18.00;91.60;;;;;;5032129;28;20483;-76
2021/06/04 01:24:08;;;;;;;10.90;5.10;;;18.00;91.50;;;;;;5027097;28;20497;-75
2021/06/04 01:26:42;;;;;;;7.13;4.80;;;18.00;91.40;;;;;;5031368;28;20443;-76
2021/06/04 01:29:16;;;;;;;8.93;5.10;;;18.00;91.30;;;;;;5031366;28;20445;-73
2021/06/04 01:31:56;;;;;;;6.43;4.27;;;18.00;91.20;;;;;;5030653;28;20466;-73
2021/06/04 01:34:34;;;;;;;9.87;5.07;;;18.00;91.40;;;;;;5031217;28;20419;-74
2021/06/04 01:37:25;;;;;;;7.30;4.77;;;18.00;91.30;;;;;;5031733;28;20412;-74
2021/06/04 01:39:59;;;;;;;7.40;4.43;;;18.00;91.40;;;;;;5023333;28;20433;-74
2021/06/04 01:42:31;;;;;;;10.30;5.83;;;17.90;91.40;;;;;;5031841;28;20498;-75
2021/06/04 01:45:09;;;;;;;8.07;4.90;;;17.90;91.50;;;;;;5031330;28;20962;-74
2021/06/04 01:47:40;;;;;;;8.30;4.40;;;17.90;91.60;;;;;;5029521;28;20930;-76
2021/06/04 01:50:13;;;;;;;5.30;4.07;;;17.90;91.70;;;;;;5032997;28;21036;-75
2021/06/04 01:52:41;;;;;;;7.70;4.90;;;17.90;91.60;;;;;;5032275;28;20602;-75
2021/06/04 01:55:22;;;;;;;12.43;4.47;;;17.90;91.40;;;;;;5032701;28;20424;-74
2021/06/04 01:57:55;;;;;;;7.00;4.40;;;17.90;91.50;;;;;;5032902;28;20420;-76
2021/06/04 02:00:36;;;;;;;4.90;3.93;;;17.90;91.50;;;;;;5032757;28;20512;-75
2021/06/04 02:03:04;;;;;;;6.80;5.00;;;17.90;91.60;;;;;;5027278;28;20494;-74
2021/06/04 02:05:35;;;;;;;7.83;4.37;;;17.90;91.80;;;;;;5032615;28;20433;-74
2021/06/04 02:08:02;;;;;;;7.23;5.53;;;17.80;91.90;;;;;;5032241;28;20420;-74
2021/06/04 02:10:33;;;;;;;9.70;4.40;;;17.80;92.00;;;;;;5032341;28;20467;-75
2021/06/04 02:13:00;;;;;;;8.53;4.87;;;17.80;91.80;;;;;;5032054;28;20439;-75
2021/06/04 02:15:31;;;;;;;9.37;5.17;;;17.80;92.00;;;;;;5032453;28;20426;-74
2021/06/04 02:18:15;;;;;;;6.40;4.43;;;17.80;92.10;;;;;;5030844;28;20439;-75
2021/06/04 02:20:56;;;;;;;5.90;4.57;;;17.80;92.20;;;;;;5031711;28;20432;-75
2021/06/04 02:23:58;;;;;;;9.23;5.87;;;17.80;92.20;;;;;;5031501;28;20436;-74
2021/06/04 02:26:37;;;;;;;6.63;4.50;;;17.80;92.00;;;;;;5039682;28;20915;-75
2021/06/04 02:29:11;;;;;;;8.00;5.10;;;17.80;92.20;;;;;;5035204;28;20452;-74
2021/06/04 02:31:57;;;;;;;7.97;4.80;;;17.70;92.30;;;;;;5039702;28;20521;-74
2021/06/04 02:34:26;;;;;;;7.33;5.23;;;17.70;92.60;;;;;;5034883;28;20423;-76
2021/06/04 02:37:22;;;;;;;7.10;4.80;;;17.70;92.20;;;;;;5037928;28;20428;-75
2021/06/04 02:39:56;;;;;;;7.43;5.03;;;17.70;92.50;;;;;;5028846;28;20438;-74
2021/06/04 02:42:29;;;;;;;8.73;5.27;;;17.70;92.50;;;;;;5030095;28;20987;-75
2021/06/04 02:45:05;;;;;;;6.53;4.67;;;17.60;92.60;;;;;;5030606;28;20579;-75
2021/06/04 02:47:42;;;;;;;9.20;5.10;;;17.60;92.60;;;;;;5026894;28;20455;-75
2021/06/04 02:50:30;;;;;;;9.10;5.20;;;17.60;93.10;;;;;;5026140;28;20486;-75
2021/06/04 02:53:17;;;;;;;8.83;5.17;;;17.60;93.30;;;;;;5029869;28;20431;-76
2021/06/04 02:56:05;;;;;;;7.87;5.47;;;17.60;93.40;;;;;;5028597;28;20427;-75
2021/06/04 02:58:31;;;;;;;7.87;5.10;;;17.40;92.10;;;;;;5028459;28;20423;-76
2021/06/04 03:00:57;;;;;;;9.43;5.83;;;17.30;92.70;;;;;;5030607;28;20420;-76
2021/06/04 03:03:22;;;;;;;10.43;5.70;;;17.10;93.20;;;;;;5038230;28;20424;-74
2021/06/04 03:05:48;;;;;;;10.17;6.10;;;16.90;93.80;;;;;;5045938;28;20193;-77
2021/06/04 03:08:15;;;;;;;9.33;5.40;;;16.70;94.30;;;;;;5029871;28;20423;-75
2021/06/04 03:10:46;;;;;;;9.50;5.90;;;16.70;94.70;;;;;;5030315;28;20212;-75
2021/06/04 03:13:22;;;;;;;10.63;6.30;;;16.70;94.60;;;;;;5029415;28;20444;-75
2021/06/04 03:15:52;;;;;;;12.33;6.57;;;16.80;94.70;;;;;;5033014;28;20828;-76
2021/06/04 03:18:30;;;;;;;9.97;5.63;;;16.80;94.60;;;;;;5033894;28;20417;-75
2021/06/04 03:20:57;;;;;;;9.93;6.00;;;16.90;94.50;;;;;;5031583;28;20932;-75
2021/06/04 03:23:35;;;;;;;8.40;5.77;;;16.90;94.70;;;;;;5035542;28;20488;-75
2021/06/04 03:26:02;;;;;;;11.93;5.90;;;16.90;94.90;;;;;;5053270;28;20420;-74
2021/06/04 03:28:29;;;;;;;10.60;6.77;;;17.00;94.80;;;;;;5051636;28;20438;-75
2021/06/04 03:30:55;;;;;;;10.93;6.47;;;17.00;95.00;;;;;;5034532;28;20496;-77
2021/06/04 03:33:26;;;;;;;11.47;6.90;;;17.10;95.10;;;;;;5039351;28;20496;-74
2021/06/04 03:35:53;;;;;;;11.33;6.63;;;17.10;95.10;;;;;;5045114;28;20427;-75
2021/06/04 03:38:20;;;;;;;12.23;6.80;;;17.20;95.20;;;;;;5040699;28;20875;-76
2021/06/04 03:40:47;;;;;;;13.90;5.90;;;17.30;95.00;;;;;;5037190;28;20954;-75
2021/06/04 03:43:15;;;;;;;11.83;5.87;;;17.40;94.40;;;;;;5046295;28;20637;-75
2021/06/04 03:45:43;;;;;;;12.40;6.80;;;17.40;94.60;;;;;;5039992;28;20428;-75
2021/06/04 03:48:12;;;;;;;10.70;7.33;;;17.40;94.40;;;;;;5036584;28;20929;-74
2021/06/04 03:50:39;;;;;;;14.60;7.10;;;17.40;94.40;;;;;;5033029;28;20470;-74
2021/06/04 03:53:07;;;;;;;16.27;7.70;;;17.40;94.00;;;;;;5033913;28;20522;-74
2021/06/04 03:55:33;;;;;;;12.77;7.53;;;17.30;94.20;;;;;;5033839;28;20455;-74
2021/06/04 03:57:59;;;;;;;10.43;6.63;;;17.30;94.40;;;;;;5034966;28;20428;-75
2021/06/04 04:00:36;;;;;;;10.53;7.27;;;17.20;94.60;;;;;;5037843;28;20976;-73
2021/06/04 04:03:03;;;;;;;11.50;7.60;;;17.30;94.60;;;;;;5034414;28;20231;-74
2021/06/04 04:05:29;;;;;;;12.80;7.87;;;17.30;94.70;;;;;;5038871;28;20427;-74
2021/06/04 04:07:55;;;;;;;13.80;7.03;;;17.30;94.60;;;;;;5033521;28;20917;-76
2021/06/04 04:10:24;;;;;;;10.17;6.90;;;17.40;94.60;;;;;;5033563;28;20458;-73
2021/06/04 04:12:50;;;;;;;13.00;7.50;;;17.40;94.70;;;;;;5031424;28;20439;-75
2021/06/04 04:15:17;;;;;;;14.07;7.80;;;17.40;94.70;;;;;;5033917;28;20426;-73
2021/06/04 04:17:48;;;;;;;12.97;8.00;;;17.50;94.40;;;;;;5031956;28;20271;-75
2021/06/04 04:20:37;;;;;;;13.17;7.50;;;17.50;94.20;;;;;;5033700;28;20416;-76
2021/06/04 04:23:06;;;;;;;14.60;8.27;;;17.70;94.20;;;;;;5025980;28;20458;-75
2021/06/04 04:25:36;;;;;;;16.97;7.17;;;17.80;94.10;;;;;;5033855;28;20446;-76
2021/06/04 04:28:06;;;;;;;14.50;7.30;;;18.00;93.90;;;;;;5025073;28;20523;-75
2021/06/04 04:30:33;;;;;;;14.47;7.80;;;18.10;92.90;;;;;;5032416;28;20469;-75
2021/06/04 04:32:59;;;;;;;10.50;6.70;;;18.20;92.70;;;;;;5031346;28;20468;-75
2021/06/04 04:35:29;;;;;;;12.50;7.70;;;18.30;92.40;;;;;;5032781;28;20791;-74
2021/06/04 04:37:55;;;;;;;11.73;6.70;;;18.40;92.30;;;;;;5031785;28;20423;-74
2021/06/04 04:40:23;;;;;;;11.90;7.30;;;18.50;92.00;;;;;;5031258;28;20435;-74
2021/06/04 04:42:49;;;;;;;11.27;7.50;;;18.50;91.80;;;;;;5032554;28;20482;-76
2021/06/04 04:45:20;;;;;;;12.07;6.93;;;18.40;92.00;;;;;;5032628;28;20949;-75
2021/06/04 04:47:46;;;;;;;12.83;7.63;;;18.40;92.30;;;;;;5033028;28;20570;-74
2021/06/04 04:50:13;;;;;;;10.30;6.50;;;18.40;92.50;;;;;;5032948;28;20590;-74
2021/06/04 04:52:39;;;;;;;12.20;7.93;;;18.50;92.70;;;;;;5032448;28;20202;-73
2021/06/04 04:55:07;;;;;;;11.13;7.43;;;18.60;92.60;;;;;;5033505;28;20413;-73
2021/06/04 04:57:33;;;;;;;13.60;7.73;;;18.70;92.50;;;;;;5031726;28;20183;-75
2021/06/04 04:59:59;;;;;;;11.57;7.27;;;18.80;92.40;;;;;;5033980;28;20411;-75
2021/06/04 05:02:25;;;;;;;13.20;7.77;;;18.70;92.60;;;;;;5034108;28;20427;-74
2021/06/04 05:04:51;;;;;;;13.20;8.10;;;18.60;93.00;;;;;;5038667;28;20427;-76
2021/06/04 05:07:17;;;;;;;15.00;8.20;;;18.70;93.10;;;;;;5036230;28;20194;-74
2021/06/04 05:09:43;;;;;;;13.13;8.17;;;18.70;93.10;;;;;;5033797;28;20421;-73
2021/06/04 05:12:09;;;;;;;12.03;7.90;;;18.80;92.80;;;;;;5033427;28;20831;-75
2021/06/04 05:14:36;;;;;;;11.20;8.23;;;18.90;92.80;;;;;;5033024;28;20183;-74
2021/06/04 05:17:02;;;;;;;11.50;7.60;;;19.00;92.80;;;;;;5032705;28;20416;-74
2021/06/04 05:19:29;;;;;;;14.60;8.47;;;19.20;92.40;;;;;;5033660;28;20424;-76
2021/06/04 05:21:55;;;;;;;14.27;8.00;;;19.40;91.80;;;;;;5032884;28;20439;-76
2021/06/04 05:24:21;;;;;;;9.17;6.03;;;19.60;91.50;;;;;;5032110;28;20492;-75
2021/06/04 05:26:46;;;;;;;11.53;7.53;;;19.80;90.90;;;;;;5033064;28;20942;-75
2021/06/04 05:29:12;;;;;;;10.73;7.57;;;19.80;90.40;;;;;;5032574;28;20185;-75
2021/06/04 05:31:39;;;;;;;11.40;7.80;;;19.80;90.60;;;;;;5030438;28;20711;-75
2021/06/04 05:34:06;;;;;;;10.90;7.20;;;20.00;90.10;;;;;;5032582;28;20264;-75
2021/06/04 05:36:34;;;;;;;10.30;7.53;;;20.20;89.50;;;;;;5031180;28;20416;-74
2021/06/04 05:39:06;;;;;;;14.60;9.00;;;20.30;89.20;;;;;;5032911;28;21309;-75
2021/06/04 05:41:32;;;;;;;9.93;6.53;;;20.30;89.00;;;;;;5028543;28;20510;-76
2021/06/04 05:43:58;;;;;;;10.30;7.10;;;20.40;89.20;;;;;;5042587;28;20452;-76
2021/06/04 05:46:24;;;;;;;13.13;7.17;;;20.60;88.30;;;;;;5034631;28;20510;-75
2021/06/04 05:48:50;;;;;;;11.50;6.93;;;20.70;87.70;;;;;;5030436;28;20908;-76
2021/06/04 05:51:24;;;;;;;11.23;7.70;;;20.80;87.40;;;;;;5031463;28;20224;-76
2021/06/04 05:53:50;;;;;;;10.10;6.60;;;20.80;87.40;;;;;;5031605;28;20518;-76
2021/06/04 05:56:18;;;;;;;9.97;6.87;;;20.70;87.60;;;;;;5031534;28;20412;-74
2021/06/04 05:58:45;;;;;;;11.30;6.80;;;20.80;87.60;;;;;;5031777;28;20845;-75
2021/06/04 06:01:18;;;;;;;9.63;6.83;;;20.90;87.00;;;;;;5031250;28;20451;-76
2021/06/04 06:03:44;;;;;;;9.20;6.90;;;21.00;86.30;;;;;;5032983;28;20555;-75
2021/06/04 06:06:12;;;;;;;10.20;6.10;;;21.10;85.70;;;;;;5032758;28;20472;-75
2021/06/04 06:08:39;;;;;;;8.10;6.00;;;21.10;84.60;;;;;;5031781;28;20214;-72
2021/06/04 06:11:06;;;;;;;9.93;5.67;;;21.20;84.40;;;;;;5029565;28;20962;-74
2021/06/04 06:13:32;;;;;;;9.03;6.37;;;21.30;84.70;;;;;;5030890;28;20421;-74
2021/06/04 06:15:59;;;;;;;7.60;5.50;;;21.40;83.30;;;;;;5030063;28;20560;-72
2021/06/04 06:18:26;;;;;;;17.30;9.00;;;21.50;83.00;;;;;;5029528;28;20184;-73
2021/06/04 06:20:52;;;;;;;19.70;9.90;;;21.60;83.10;;;;;;5029273;28;22154;-75
2021/06/04 06:23:21;;;;;;;29.70;11.03;;;21.40;84.30;;;;;;5028845;28;20971;-75
2021/06/04 06:25:53;;;;;;;22.53;10.00;;;21.10;85.50;;;;;;5030039;28;20428;-72
2021/06/04 06:28:21;;;;;;;21.73;10.30;;;21.10;85.90;;;;;;5029911;28;20437;-73
2021/06/04 06:30:48;;;;;;;16.03;9.20;;;20.80;87.00;;;;;;5029320;28;20469;-72
2021/06/04 06:33:14;;;;;;;13.53;7.87;;;20.90;87.30;;;;;;5029969;28;20441;-72
2021/06/04 06:35:50;;;;;;;10.67;7.23;;;21.20;86.50;;;;;;5030118;28;20532;-73
2021/06/04 06:38:16;;;;;;;8.37;6.40;;;21.40;84.70;;;;;;5029763;28;20447;-71
2021/06/04 06:40:44;;;;;;;11.77;6.67;;;21.40;84.10;;;;;;5028952;28;20520;-75
2021/06/04 06:43:10;;;;;;;9.30;6.40;;;21.40;83.10;;;;;;5030701;28;20476;-76
2021/06/04 06:45:38;;;;;;;8.53;6.33;;;21.40;82.70;;;;;;5032182;28;20435;-76
2021/06/04 06:48:04;;;;;;;8.93;6.20;;;21.60;81.90;;;;;;5031976;28;20428;-74
2021/06/04 06:50:31;;;;;;;7.80;5.60;;;21.50;81.50;;;;;;5034480;28;20779;-74
2021/06/04 06:53:00;;;;;;;9.10;6.17;;;21.60;81.90;;;;;;5034139;28;20769;-76
2021/06/04 06:55:26;;;;;;;11.40;6.00;;;21.80;81.20;;;;;;5035851;28;20896;-75
2021/06/04 06:57:52;;;;;;;9.73;6.73;;;21.90;81.50;;;;;;5035167;28;20423;-75
2021/06/04 07:00:23;;;;;;;8.40;6.00;;;22.00;81.40;;;;;;5033746;28;20603;-75
2021/06/04 07:02:49;;;;;;;10.10;7.20;;;22.20;80.20;;;;;;5034239;28;20233;-75
2021/06/04 07:05:16;;;;;;;8.83;5.50;;;22.30;79.50;;;;;;5034816;28;20471;-76
2021/06/04 07:07:42;;;;;;;7.60;5.30;;;22.40;78.40;;;;;;5033804;28;20878;-75
2021/06/04 07:10:12;;;;;;;8.90;6.30;;;22.50;78.60;;;;;;5035187;28;20534;-75
2021/06/04 07:12:37;;;;;;;12.53;7.20;;;22.50;78.10;;;;;;5035082;28;20237;-75
2021/06/04 07:15:07;;;;;;;11.50;6.23;;;22.40;77.40;;;;;;5031473;28;20489;-76
2021/06/04 07:17:33;;;;;;;11.00;5.80;;;22.50;77.60;;;;;;5031959;28;20266;-75
2021/06/04 07:19:58;;;;;;;8.83;6.47;;;22.40;77.60;;;;;;5036420;28;20514;-76
2021/06/04 07:22:24;;;;;;;12.90;6.90;;;22.20;78.40;;;;;;5036650;28;20291;-75
2021/06/04 07:24:50;;;;;;;14.70;7.00;;;22.10;78.60;;;;;;5043271;28;20462;-74
2021/06/04 07:27:15;;;;;;;8.77;5.70;;;21.90;79.30;;;;;;5042878;28;20191;-76
2021/06/04 07:29:42;;;;;;;8.70;5.70;;;21.90;78.70;;;;;;5041903;28;20199;-76
2021/06/04 07:32:08;;;;;;;10.27;6.40;;;21.80;78.70;;;;;;5040652;28;20540;-76
2021/06/04 07:34:34;;;;;;;8.53;5.73;;;21.70;79.00;;;;;;5039405;28;20428;-75
2021/06/04 07:37:01;;;;;;;11.70;5.77;;;21.70;79.20;;;;;;5045158;28;20185;-76
2021/06/04 07:39:31;;;;;;;10.30;6.07;;;21.70;79.20;;;;;;5046205;28;20457;-74
2021/06/04 07:41:59;;;;;;;9.80;5.97;;;21.80;78.30;;;;;;5038767;28;20437;-76
2021/06/04 07:44:25;;;;;;;10.30;6.23;;;21.90;78.60;;;;;;5034409;28;20414;-77
2021/06/04 07:46:53;;;;;;;10.07;6.37;;;21.90;78.40;;;;;;5034096;28;20499;-76
2021/06/04 07:49:19;;;;;;;10.90;6.00;;;22.00;78.90;;;;;;5032936;28;20922;-74
2021/06/04 07:51:48;;;;;;;12.07;7.37;;;22.30;78.30;;;;;;5033687;28;20570;-76
2021/06/04 07:54:15;;;;;;;7.93;5.33;;;22.60;77.60;;;;;;5033904;28;20997;-75
2021/06/04 07:56:42;;;;;;;10.43;5.90;;;22.80;75.50;;;;;;5029289;28;20464;-75
2021/06/04 07:59:09;;;;;;;10.23;6.00;;;23.00;74.30;;;;;;5034492;28;20435;-75
2021/06/04 08:01:36;;;;;;;8.40;5.40;;;22.90;73.70;;;;;;5032039;28;20466;-77
2021/06/04 08:04:03;;;;;;;5.90;5.60;;;22.70;75.20;;;;;;5034277;28;20473;-75
2021/06/04 08:06:29;;;;;;;8.70;4.53;;;22.80;74.30;;;;;;5034043;28;20433;-76
2021/06/04 08:08:56;;;;;;;9.30;5.80;;;23.00;74.60;;;;;;5033714;28;20952;-75
2021/06/04 08:11:28;;;;;;;10.50;4.80;;;23.30;73.30;;;;;;5033774;28;20479;-76
2021/06/04 08:13:59;;;;;;;10.43;5.97;;;23.30;72.30;;;;;;5034614;28;20847;-75
2021/06/04 08:16:26;;;;;;;8.80;5.20;;;23.10;72.60;;;;;;5034393;28;20419;-76
2021/06/04 08:18:52;;;;;;;10.13;4.53;;;22.90;72.60;;;;;;5033752;28;20424;-76
2021/06/04 08:21:32;;;;;;;7.20;5.70;;;22.80;73.30;;;;;;5033982;28;20454;-75
2021/06/04 08:23:58;;;;;;;10.20;4.90;;;23.00;73.20;;;;;;5040144;28;20446;-75
2021/06/04 08:26:27;;;;;;;7.73;4.67;;;23.10;72.40;;;;;;5039012;28;20417;-76
2021/06/04 08:28:54;;;;;;;9.60;4.50;;;23.20;72.60;;;;;;5034071;28;20200;-77
2021/06/04 08:31:21;;;;;;;5.50;4.40;;;23.20;72.00;;;;;;5033481;28;20493;-77
2021/06/04 08:33:48;;;;;;;8.13;4.90;;;23.40;71.80;;;;;;5033885;28;20424;-77
2021/06/04 08:36:21;;;;;;;6.87;4.80;;;23.50;71.40;;;;;;5033819;28;20582;-77
2021/06/04 08:38:48;;;;;;;8.10;4.87;;;23.60;70.80;;;;;;5033722;28;20459;-76
2021/06/04 08:41:33;;;;;;;6.43;4.37;;;23.40;70.70;;;;;;5033300;28;20507;-76
2021/06/04 08:44:19;;;;;;;10.20;4.60;;;23.50;70.50;;;;;;5025536;28;20413;-77
2021/06/04 08:47:10;;;;;;;5.00;3.80;;;23.60;69.90;;;;;;5033718;28;20423;-76
2021/06/04 08:50:06;;;;;;;11.60;5.10;;;23.80;69.80;;;;;;5022465;28;21013;-75
2021/06/04 08:52:42;;;;;;;9.13;5.10;;;23.90;69.50;;;;;;5033103;28;20440;-76
2021/06/04 08:55:46;;;;;;;7.97;5.20;;;23.80;70.50;;;;;;5033658;28;20405;-76
2021/06/04 08:58:55;;;;;;;11.30;5.23;;;24.10;69.50;;;;;;4991943;28;20419;-75
2021/06/04 09:01:33;;;;;;;8.30;5.20;;;24.10;69.10;;;;;;4963464;28;20540;-75
2021/06/04 09:04:13;;;;;;;6.83;5.00;;;24.30;69.10;;;;;;4972653;28;20456;-78
2021/06/04 09:06:44;;;;;;;8.70;4.93;;;24.40;68.20;;;;;;4972349;28;20439;-78
2021/06/04 09:09:24;;;;;;;9.90;4.87;;;24.30;68.50;;;;;;4971946;28;20623;-77
2021/06/04 09:11:53;;;;;;;14.70;5.87;;;24.50;68.50;;;;;;4972026;28;20482;-76
2021/06/04 09:14:19;;;;;;;6.63;5.03;;;24.50;68.60;;;;;;4974281;28;20420;-75
2021/06/04 09:17:00;;;;;;;7.33;5.30;;;24.50;68.60;;;;;;4974347;28;20990;-77
2021/06/04 09:19:32;;;;;;;8.30;5.37;;;24.60;68.00;;;;;;4973230;28;20427;-77
2021/06/04 09:21:58;;;;;;;8.47;4.90;;;24.50;67.60;;;;;;4964203;28;20489;-76
2021/06/04 09:24:40;;;;;;;8.17;5.10;;;24.40;68.30;;;;;;4972600;28;20440;-75
2021/06/04 09:27:23;;;;;;;8.73;5.40;;;24.70;68.00;;;;;;4956578;28;20512;-75
2021/06/04 09:30:05;;;;;;;8.90;5.33;;;24.90;67.50;;;;;;4973016;28;20515;-76
2021/06/04 09:32:30;;;;;;;8.70;6.07;;;25.10;67.00;;;;;;4973139;28;20457;-75
2021/06/04 09:35:15;;;;;;;8.17;5.37;;;25.10;67.00;;;;;;4972363;28;20990;-77
2021/06/04 09:37:42;;;;;;;10.97;5.40;;;25.10;67.00;;;;;;4991157;28;20201;-76
2021/06/04 09:40:16;;;;;;;8.13;5.70;;;25.20;67.20;;;;;;5033494;28;20791;-76
2021/06/04 09:42:56;;;;;;;9.23;6.10;;;25.00;67.00;;;;;;5033277;28;20453;-76
2021/06/04 09:45:25;;;;;;;13.70;6.63;;;24.90;68.80;;;;;;5033209;28;20436;-76
2021/06/04 09:48:03;;;;;;;9.70;5.60;;;24.90;68.60;;;;;;5032644;28;20480;-76
2021/06/04 09:50:47;;;;;;;8.67;5.30;;;25.10;68.00;;;;;;5033245;28;20460;-76
2021/06/04 09:53:19;;;;;;;6.47;4.50;;;25.20;67.60;;;;;;5034421;28;20453;-76
2021/06/04 09:55:48;;;;;;;8.20;5.23;;;25.20;67.60;;;;;;5033522;28;20426;-76
2021/06/04 09:58:17;;;;;;;10.90;5.13;;;25.20;67.30;;;;;;5034050;28;20776;-75
2021/06/04 10:00:56;;;;;;;6.90;5.27;;;25.10;67.90;;;;;;5033267;28;20515;-75
2021/06/04 10:03:28;;;;;;;8.60;5.10;;;25.20;67.30;;;;;;5037234;28;20434;-76
2021/06/04 10:06:13;;;;;;;6.37;5.00;;;25.00;67.50;;;;;;5033863;28;20440;-75
2021/06/04 10:09:01;;;;;;;9.23;5.50;;;25.10;68.20;;;;;;5033704;28;20416;-76
2021/06/04 10:11:46;;;;;;;7.70;5.00;;;25.40;67.90;;;;;;5032003;28;20467;-75
2021/06/04 10:14:24;;;;;;;8.53;5.50;;;25.40;68.00;;;;;;5034265;28;20421;-77
2021/06/04 10:19:23;;;;;;;8.47;4.90;;;26.10;66.00;;;;;;5040565;28;20443;-76
2021/06/04 10:22:05;;;;;;;6.03;4.63;;;26.60;63.70;;;;;;5041000;28;20804;-76
2021/06/04 10:24:35;;;;;;;9.20;5.57;;;26.80;63.20;;;;;;5040934;28;20418;-75
2021/06/04 10:27:04;;;;;;;6.93;5.10;;;26.80;62.30;;;;;;5029763;28;20422;-75
2021/06/04 10:29:30;;;;;;;8.63;5.60;;;27.00;60.90;;;;;;5035054;28;20422;-76
2021/06/04 10:32:17;;;;;;;8.30;4.83;;;26.90;60.60;;;;;;5035444;28;21013;-75
2021/06/04 10:35:15;;;;;;;10.60;5.70;;;26.60;61.20;;;;;;5028881;28;20428;-76
2021/06/04 10:38:15;;;;;;;6.53;4.80;;;26.60;62.20;;;;;;4974906;28;20438;-76
2021/06/04 10:40:51;;;;;;;7.10;4.53;;;26.70;60.60;;;;;;4974658;28;20475;-75
2021/06/04 10:43:50;;;;;;;9.47;5.87;;;26.80;61.50;;;;;;4961483;28;20448;-76
2021/06/04 10:46:34;;;;;;;8.80;5.00;;;26.50;61.70;;;;;;4969059;28;20428;-75
2021/06/04 10:49:13;;;;;;;8.50;5.23;;;26.30;62.20;;;;;;4974178;28;20519;-76
2021/06/04 10:51:51;;;;;;;12.17;4.90;;;26.30;62.50;;;;;;4966023;28;20563;-76
2021/06/04 10:54:54;;;;;;;12.83;5.60;;;26.50;62.90;;;;;;4974376;28;20529;-76
2021/06/04 10:57:35;;;;;;;7.63;5.77;;;26.70;62.20;;;;;;4900809;29;20526;-76
2021/06/04 11:00:07;;;;;;;8.80;5.00;;;26.70;62.00;;;;;;4890913;29;20436;-76
2021/06/04 11:03:02;;;;;;;9.03;5.70;;;26.60;61.30;;;;;;4905704;29;20443;-75
2021/06/04 11:06:18;;;;;;;6.50;5.87;;;26.40;62.80;;;;;;4912268;29;20428;-76
2021/06/04 11:09:09;;;;;;;5.73;4.80;;;26.30;64.20;;;;;;4827973;29;20971;-76
2021/06/04 11:12:13;;;;;;;6.80;4.70;;;26.20;65.30;;;;;;4828775;29;20483;-75
2021/06/04 11:14:48;;;;;;;8.70;4.80;;;25.90;66.00;;;;;;4862167;29;20430;-76
2021/06/04 11:17:22;;;;;;;8.43;5.23;;;25.70;66.10;;;;;;4880982;29;20443;-76
2021/06/04 11:20:08;;;;;;;9.00;5.20;;;25.40;69.50;;;;;;4867971;29;20447;-76
2021/06/04 11:22:46;;;;;;;8.77;5.20;;;25.20;71.00;;;;;;4872183;29;20455;-76
2021/06/04 11:25:30;;;;;;;7.70;5.50;;;25.00;72.30;;;;;;4855927;29;20474;-75
2021/06/04 11:28:43;;;;;;;7.40;5.00;;;24.80;72.70;;;;;;4866593;29;20439;-78
2021/06/04 11:31:27;;;;;;;6.20;5.10;;;24.60;73.70;;;;;;4901227;29;20492;-75
2021/06/04 11:33:55;;;;;;;8.10;6.27;;;24.10;76.80;;;;;;4977231;28;20946;-77
2021/06/04 11:36:28;;;;;;;12.77;6.20;;;24.00;78.60;;;;;;4952018;28;20426;-76
2021/06/04 11:39:20;;;;;;;6.10;4.70;;;24.00;79.00;;;;;;4981500;28;20503;-76
2021/06/04 11:41:53;;;;;;;11.40;5.63;;;24.10;80.00;;;;;;5023371;28;20468;-76
2021/06/04 11:44:24;;;;;;;7.10;5.10;;;24.10;80.50;;;;;;5034553;28;20425;-75
2021/06/04 11:47:12;;;;;;;8.80;6.00;;;24.10;81.80;;;;;;5034916;28;20415;-76
2021/06/04 11:50:06;;;;;;;10.50;6.13;;;24.20;81.90;;;;;;5034638;28;20452;-76
2021/06/04 11:52:44;;;;;;;9.70;5.60;;;24.20;82.20;;;;;;5032417;28;20449;-75
2021/06/04 11:55:25;;;;;;;11.50;6.47;;;24.10;81.10;;;;;;5036668;28;20515;-76
2021/06/04 11:57:55;;;;;;;9.17;5.50;;;23.90;80.60;;;;;;5033661;28;20843;-76
2021/06/04 12:00:30;;;;;;;12.90;7.00;;;23.90;80.80;;;;;;5033255;28;20424;-76
2021/06/04 12:03:07;;;;;;;14.07;6.90;;;23.60;81.50;;;;;;5034120;28;20444;-76
2021/06/04 12:05:58;;;;;;;9.10;6.07;;;23.00;82.20;;;;;;5034213;28;20428;-76
2021/06/04 12:08:29;;;;;;;9.50;5.70;;;23.40;81.20;;;;;;5033259;28;20415;-76
2021/06/04 12:10:55;;;;;;;9.83;6.03;;;23.60;79.30;;;;;;5033941;28;20480;-75
2021/06/04 12:13:36;;;;;;;9.80;5.33;;;23.90;78.10;;;;;;5033192;28;20443;-76
2021/06/04 12:16:27;;;;;;;8.90;6.20;;;24.00;77.80;;;;;;5034593;28;20182;-75
2021/06/04 12:19:22;;;;;;;13.03;8.23;;;24.00;77.60;;;;;;5032380;28;20562;-75
2021/06/04 12:21:48;;;;;;;11.37;6.67;;;23.90;77.30;;;;;;5033535;28;20452;-76
2021/06/04 12:24:19;;;;;;;17.93;6.87;;;23.90;77.60;;;;;;5032735;28;20521;-75
2021/06/04 12:27:00;;;;;;;10.67;5.80;;;23.70;78.00;;;;;;5034667;28;20274;-76
2021/06/04 12:29:26;;;;;;;12.50;5.87;;;23.60;78.70;;;;;;5033316;28;20427;-75
2021/06/04 12:32:16;;;;;;;13.30;6.27;;;23.50;78.30;;;;;;5034726;28;20472;-75
2021/06/04 12:34:42;;;;;;;9.40;6.00;;;23.40;78.90;;;;;;5034587;28;20423;-75
2021/06/04 12:37:10;;;;;;;10.97;5.97;;;23.00;80.90;;;;;;5033834;28;21075;-75
2021/06/04 12:39:44;;;;;;;8.73;5.70;;;22.30;83.30;;;;;;5034847;28;20186;-79
2021/06/04 12:42:22;;;;;;;14.63;5.30;;;19.80;90.40;;;;;;5031238;28;20855;-79
2021/06/04 12:45:03;;;;;;;10.23;5.20;;;17.90;94.30;;;;;;5033468;28;20426;-79
2021/06/04 12:47:40;;;;;;;8.13;4.73;;;17.60;94.50;;;;;;5032926;28;20508;-79
2021/06/04 12:50:11;;;;;;;14.93;7.20;;;17.90;98.70;;;;;;5034663;28;20419;-78
2021/06/04 12:52:38;;;;;;;11.30;5.90;;;18.00;99.10;;;;;;5033600;28;20455;-80
2021/06/04 12:55:21;;;;;;;19.97;7.30;;;18.20;99.80;;;;;;5034457;28;20535;-79
2021/06/04 12:57:48;;;;;;;13.70;8.00;;;18.30;99.90;;;;;;5033691;28;20801;-80
2021/06/04 13:00:30;;;;;;;11.43;7.30;;;18.50;99.90;;;;;;5036517;28;20455;-80
2021/06/04 13:03:26;;;;;;;13.20;7.60;;;18.70;99.90;;;;;;5034724;28;20595;-80
2021/06/04 13:05:55;;;;;;;13.80;8.27;;;19.00;99.90;;;;;;5033815;28;20535;-78
2021/06/04 13:08:35;;;;;;;10.30;6.10;;;19.20;99.90;;;;;;5035358;28;20746;-81
2021/06/04 13:11:02;;;;;;;15.00;7.30;;;19.50;99.90;;;;;;5027281;28;20463;-79
2021/06/04 13:13:38;;;;;;;23.70;8.90;;;19.80;99.90;;;;;;5036726;28;20429;-78
2021/06/04 13:16:26;;;;;;;14.83;8.90;;;20.20;99.90;;;;;;5028253;28;20435;-80